sensor_id;sensor_type;location;lat;lon;timestamp;P1;durP1;ratioP1;P2;durP2;ratioP2
16031;SDS011;8120;48.308;8.914;2023-06-19T00:02:02;7.50;;;6.70;;
16031;SDS011;8120;48.308;8.914;2023-06-19T00:04:31;8.87;;;7.03;;
16031;SDS011;8120;48.308;8.914;2023-06-19T00:06:59;8.20;;;7.03;;
16031;SDS011;8120;48.308;8.914;2023-06-19T00:09:28;8.60;;;7.50;;
16031;SDS011;8120;48.308;8.914;2023-06-19T00:11:56;8.03;;;6.60;;
16031;SDS011;8120;48.308;8.914;2023-06-19T00:14:24;7.77;;;6.50;;
16031;SDS011;8120;48.308;8.914;2023-06-19T00:16:52;8.10;;;6.67;;
16031;SDS011;8120;48.308;8.914;2023-06-19T00:19:20;7.43;;;6.60;;
16031;SDS011;8120;48.308;8.914;2023-06-19T00:21:48;10.70;;;7.17;;
16031;SDS011;8120;48.308;8.914;2023-06-19T00:24:16;9.73;;;7.07;;
16031;SDS011;8120;48.308;8.914;2023-06-19T00:26:45;7.63;;;6.57;;
16031;SDS011;8120;48.308;8.914;2023-06-19T00:29:13;8.83;;;6.70;;
16031;SDS011;8120;48.308;8.914;2023-06-19T00:31:41;9.07;;;7.20;;
16031;SDS011;8120;48.308;8.914;2023-06-19T00:34:08;7.70;;;6.90;;
16031;SDS011;8120;48.308;8.914;2023-06-19T00:36:36;8.77;;;6.60;;
16031;SDS011;8120;48.308;8.914;2023-06-19T00:39:06;8.33;;;7.43;;
16031;SDS011;8120;48.308;8.914;2023-06-19T00:41:35;7.50;;;6.60;;
16031;SDS011;8120;48.308;8.914;2023-06-19T00:44:04;8.33;;;7.00;;
16031;SDS011;8120;48.308;8.914;2023-06-19T00:46:32;8.53;;;6.73;;
16031;SDS011;8120;48.308;8.914;2023-06-19T00:49:03;8.30;;;6.97;;
16031;SDS011;8120;48.308;8.914;2023-06-19T00:51:31;9.13;;;7.00;;
16031;SDS011;8120;48.308;8.914;2023-06-19T00:53:58;7.93;;;7.10;;
16031;SDS011;8120;48.308;8.914;2023-06-19T00:56:26;8.30;;;7.10;;
16031;SDS011;8120;48.308;8.914;2023-06-19T00:58:55;8.23;;;7.17;;
16031;SDS011;8120;48.308;8.914;2023-06-19T01:01:24;8.13;;;7.30;;
16031;SDS011;8120;48.308;8.914;2023-06-19T01:03:54;8.93;;;7.30;;
16031;SDS011;8120;48.308;8.914;2023-06-19T01:06:23;8.30;;;7.13;;
16031;SDS011;8120;48.308;8.914;2023-06-19T01:08:55;8.70;;;7.50;;
16031;SDS011;8120;48.308;8.914;2023-06-19T01:11:28;8.37;;;7.57;;
16031;SDS011;8120;48.308;8.914;2023-06-19T01:14:02;9.90;;;6.60;;
16031;SDS011;8120;48.308;8.914;2023-06-19T01:16:34;8.03;;;6.37;;
16031;SDS011;8120;48.308;8.914;2023-06-19T01:19:03;10.70;;;6.67;;
16031;SDS011;8120;48.308;8.914;2023-06-19T01:21:34;7.77;;;5.97;;
16031;SDS011;8120;48.308;8.914;2023-06-19T01:24:03;7.73;;;6.20;;
16031;SDS011;8120;48.308;8.914;2023-06-19T01:26:31;10.63;;;5.93;;
16031;SDS011;8120;48.308;8.914;2023-06-19T01:28:59;9.83;;;6.17;;
16031;SDS011;8120;48.308;8.914;2023-06-19T01:31:28;7.70;;;5.90;;
16031;SDS011;8120;48.308;8.914;2023-06-19T01:33:58;7.63;;;6.23;;
16031;SDS011;8120;48.308;8.914;2023-06-19T01:36:31;6.57;;;5.47;;
16031;SDS011;8120;48.308;8.914;2023-06-19T01:38:59;11.70;;;6.20;;
16031;SDS011;8120;48.308;8.914;2023-06-19T01:41:28;8.23;;;5.73;;
16031;SDS011;8120;48.308;8.914;2023-06-19T01:43:59;9.97;;;6.30;;
16031;SDS011;8120;48.308;8.914;2023-06-19T01:46:27;7.40;;;5.80;;
16031;SDS011;8120;48.308;8.914;2023-06-19T01:48:55;7.30;;;5.70;;
16031;SDS011;8120;48.308;8.914;2023-06-19T01:51:22;8.30;;;5.73;;
16031;SDS011;8120;48.308;8.914;2023-06-19T01:53:50;9.30;;;6.30;;
16031;SDS011;8120;48.308;8.914;2023-06-19T01:56:18;7.70;;;5.77;;
16031;SDS011;8120;48.308;8.914;2023-06-19T01:58:47;7.57;;;5.63;;
16031;SDS011;8120;48.308;8.914;2023-06-19T02:01:16;7.10;;;5.83;;
16031;SDS011;8120;48.308;8.914;2023-06-19T02:03:44;7.13;;;6.03;;
16031;SDS011;8120;48.308;8.914;2023-06-19T02:06:12;7.63;;;5.27;;
16031;SDS011;8120;48.308;8.914;2023-06-19T02:08:39;7.87;;;5.60;;
16031;SDS011;8120;48.308;8.914;2023-06-19T02:11:07;7.20;;;5.60;;
16031;SDS011;8120;48.308;8.914;2023-06-19T02:13:35;7.43;;;5.60;;
16031;SDS011;8120;48.308;8.914;2023-06-19T02:16:07;7.87;;;5.43;;
16031;SDS011;8120;48.308;8.914;2023-06-19T02:18:34;7.60;;;5.20;;
16031;SDS011;8120;48.308;8.914;2023-06-19T02:21:02;6.30;;;5.13;;
16031;SDS011;8120;48.308;8.914;2023-06-19T02:23:30;6.80;;;5.57;;
16031;SDS011;8120;48.308;8.914;2023-06-19T02:25:58;6.53;;;5.50;;
16031;SDS011;8120;48.308;8.914;2023-06-19T02:28:26;6.73;;;5.40;;
16031;SDS011;8120;48.308;8.914;2023-06-19T02:30:54;6.80;;;5.23;;
16031;SDS011;8120;48.308;8.914;2023-06-19T02:33:23;7.63;;;5.33;;
16031;SDS011;8120;48.308;8.914;2023-06-19T02:35:51;7.87;;;5.63;;
16031;SDS011;8120;48.308;8.914;2023-06-19T02:38:18;8.33;;;5.30;;
16031;SDS011;8120;48.308;8.914;2023-06-19T02:40:47;7.00;;;5.10;;
16031;SDS011;8120;48.308;8.914;2023-06-19T02:43:15;7.47;;;5.30;;
16031;SDS011;8120;48.308;8.914;2023-06-19T02:45:43;6.77;;;5.10;;
16031;SDS011;8120;48.308;8.914;2023-06-19T02:48:11;6.40;;;5.10;;
16031;SDS011;8120;48.308;8.914;2023-06-19T02:50:40;6.33;;;4.80;;
16031;SDS011;8120;48.308;8.914;2023-06-19T02:53:07;6.60;;;5.10;;
16031;SDS011;8120;48.308;8.914;2023-06-19T02:55:35;6.97;;;5.20;;
16031;SDS011;8120;48.308;8.914;2023-06-19T02:58:03;7.53;;;5.10;;
16031;SDS011;8120;48.308;8.914;2023-06-19T03:00:31;5.87;;;4.37;;
16031;SDS011;8120;48.308;8.914;2023-06-19T03:02:59;7.37;;;4.87;;
16031;SDS011;8120;48.308;8.914;2023-06-19T03:05:27;6.80;;;4.90;;
16031;SDS011;8120;48.308;8.914;2023-06-19T03:07:56;6.20;;;4.53;;
16031;SDS011;8120;48.308;8.914;2023-06-19T03:10:24;7.43;;;4.93;;
16031;SDS011;8120;48.308;8.914;2023-06-19T03:12:52;5.60;;;4.23;;
16031;SDS011;8120;48.308;8.914;2023-06-19T03:15:20;4.87;;;3.90;;
16031;SDS011;8120;48.308;8.914;2023-06-19T03:17:48;6.17;;;3.90;;
16031;SDS011;8120;48.308;8.914;2023-06-19T03:20:15;6.03;;;4.10;;
16031;SDS011;8120;48.308;8.914;2023-06-19T03:22:44;5.83;;;3.87;;
16031;SDS011;8120;48.308;8.914;2023-06-19T03:25:13;4.70;;;3.57;;
16031;SDS011;8120;48.308;8.914;2023-06-19T03:27:41;7.17;;;3.63;;
16031;SDS011;8120;48.308;8.914;2023-06-19T03:30:09;4.33;;;3.27;;
16031;SDS011;8120;48.308;8.914;2023-06-19T03:32:39;5.20;;;3.80;;
16031;SDS011;8120;48.308;8.914;2023-06-19T03:35:07;4.50;;;3.40;;
16031;SDS011;8120;48.308;8.914;2023-06-19T03:37:36;4.40;;;3.10;;
16031;SDS011;8120;48.308;8.914;2023-06-19T03:40:04;3.40;;;2.70;;
16031;SDS011;8120;48.308;8.914;2023-06-19T03:42:35;6.47;;;2.70;;
16031;SDS011;8120;48.308;8.914;2023-06-19T03:45:03;4.70;;;3.23;;
16031;SDS011;8120;48.308;8.914;2023-06-19T03:47:31;4.87;;;3.47;;
16031;SDS011;8120;48.308;8.914;2023-06-19T03:49:59;4.17;;;2.90;;
16031;SDS011;8120;48.308;8.914;2023-06-19T03:52:45;4.00;;;2.70;;
16031;SDS011;8120;48.308;8.914;2023-06-19T03:55:13;4.83;;;2.90;;
16031;SDS011;8120;48.308;8.914;2023-06-19T03:57:42;3.93;;;2.67;;
16031;SDS011;8120;48.308;8.914;2023-06-19T04:00:10;4.03;;;3.10;;
16031;SDS011;8120;48.308;8.914;2023-06-19T04:02:39;3.03;;;2.47;;
16031;SDS011;8120;48.308;8.914;2023-06-19T04:05:07;5.20;;;3.10;;
16031;SDS011;8120;48.308;8.914;2023-06-19T04:07:35;5.90;;;3.40;;
16031;SDS011;8120;48.308;8.914;2023-06-19T04:10:03;4.20;;;2.83;;
16031;SDS011;8120;48.308;8.914;2023-06-19T04:12:32;4.33;;;2.90;;
16031;SDS011;8120;48.308;8.914;2023-06-19T04:15:01;4.03;;;2.90;;
16031;SDS011;8120;48.308;8.914;2023-06-19T04:17:30;4.00;;;2.70;;
16031;SDS011;8120;48.308;8.914;2023-06-19T04:19:58;4.17;;;2.63;;
16031;SDS011;8120;48.308;8.914;2023-06-19T04:22:26;3.63;;;2.60;;
16031;SDS011;8120;48.308;8.914;2023-06-19T04:24:54;4.53;;;2.90;;
16031;SDS011;8120;48.308;8.914;2023-06-19T04:27:21;4.50;;;3.50;;
16031;SDS011;8120;48.308;8.914;2023-06-19T04:29:49;4.37;;;2.57;;
16031;SDS011;8120;48.308;8.914;2023-06-19T04:32:21;5.87;;;3.00;;
16031;SDS011;8120;48.308;8.914;2023-06-19T04:34:49;4.03;;;3.00;;
16031;SDS011;8120;48.308;8.914;2023-06-19T04:37:17;6.13;;;3.50;;
16031;SDS011;8120;48.308;8.914;2023-06-19T04:39:46;4.97;;;3.33;;
16031;SDS011;8120;48.308;8.914;2023-06-19T04:42:15;4.83;;;3.30;;
16031;SDS011;8120;48.308;8.914;2023-06-19T04:44:45;5.07;;;3.63;;
16031;SDS011;8120;48.308;8.914;2023-06-19T04:47:13;7.27;;;3.80;;
16031;SDS011;8120;48.308;8.914;2023-06-19T04:49:45;6.30;;;3.70;;
16031;SDS011;8120;48.308;8.914;2023-06-19T04:52:13;6.60;;;3.90;;
16031;SDS011;8120;48.308;8.914;2023-06-19T04:54:41;6.27;;;3.60;;
16031;SDS011;8120;48.308;8.914;2023-06-19T04:57:08;6.13;;;3.63;;
16031;SDS011;8120;48.308;8.914;2023-06-19T04:59:36;4.90;;;3.47;;
16031;SDS011;8120;48.308;8.914;2023-06-19T05:02:04;4.53;;;3.13;;
16031;SDS011;8120;48.308;8.914;2023-06-19T05:04:33;4.27;;;3.43;;
16031;SDS011;8120;48.308;8.914;2023-06-19T05:07:02;5.30;;;3.27;;
16031;SDS011;8120;48.308;8.914;2023-06-19T05:09:31;4.33;;;3.13;;
16031;SDS011;8120;48.308;8.914;2023-06-19T05:11:58;4.20;;;2.80;;
16031;SDS011;8120;48.308;8.914;2023-06-19T05:14:26;4.97;;;3.13;;
16031;SDS011;8120;48.308;8.914;2023-06-19T05:16:54;3.60;;;2.87;;
16031;SDS011;8120;48.308;8.914;2023-06-19T05:19:22;4.87;;;3.40;;
16031;SDS011;8120;48.308;8.914;2023-06-19T05:21:50;4.70;;;3.20;;
16031;SDS011;8120;48.308;8.914;2023-06-19T05:24:19;5.13;;;3.20;;
16031;SDS011;8120;48.308;8.914;2023-06-19T05:26:47;4.57;;;2.90;;
16031;SDS011;8120;48.308;8.914;2023-06-19T05:29:15;6.10;;;3.30;;
16031;SDS011;8120;48.308;8.914;2023-06-19T05:31:43;3.87;;;3.03;;
16031;SDS011;8120;48.308;8.914;2023-06-19T05:34:10;4.07;;;2.97;;
16031;SDS011;8120;48.308;8.914;2023-06-19T05:36:38;5.10;;;3.23;;
16031;SDS011;8120;48.308;8.914;2023-06-19T05:39:06;2.87;;;2.57;;
16031;SDS011;8120;48.308;8.914;2023-06-19T05:41:37;3.57;;;2.70;;
16031;SDS011;8120;48.308;8.914;2023-06-19T05:44:04;4.03;;;3.03;;
16031;SDS011;8120;48.308;8.914;2023-06-19T05:46:32;3.80;;;2.77;;
16031;SDS011;8120;48.308;8.914;2023-06-19T05:49:00;4.40;;;3.30;;
16031;SDS011;8120;48.308;8.914;2023-06-19T05:51:28;3.30;;;2.73;;
16031;SDS011;8120;48.308;8.914;2023-06-19T05:53:56;3.50;;;2.87;;
16031;SDS011;8120;48.308;8.914;2023-06-19T05:56:27;5.10;;;3.20;;
16031;SDS011;8120;48.308;8.914;2023-06-19T05:58:56;4.33;;;3.20;;
16031;SDS011;8120;48.308;8.914;2023-06-19T06:01:24;6.50;;;3.63;;
16031;SDS011;8120;48.308;8.914;2023-06-19T06:03:54;5.90;;;4.00;;
16031;SDS011;8120;48.308;8.914;2023-06-19T06:06:22;5.30;;;4.20;;
16031;SDS011;8120;48.308;8.914;2023-06-19T06:08:50;7.63;;;4.80;;
16031;SDS011;8120;48.308;8.914;2023-06-19T06:11:18;6.33;;;4.00;;
16031;SDS011;8120;48.308;8.914;2023-06-19T06:13:46;6.23;;;4.57;;
16031;SDS011;8120;48.308;8.914;2023-06-19T06:16:15;7.50;;;4.83;;
16031;SDS011;8120;48.308;8.914;2023-06-19T06:18:44;6.33;;;4.47;;
16031;SDS011;8120;48.308;8.914;2023-06-19T06:21:12;6.20;;;4.47;;
16031;SDS011;8120;48.308;8.914;2023-06-19T06:23:40;5.07;;;4.23;;
16031;SDS011;8120;48.308;8.914;2023-06-19T06:26:11;4.97;;;3.80;;
16031;SDS011;8120;48.308;8.914;2023-06-19T06:28:39;6.00;;;4.17;;
16031;SDS011;8120;48.308;8.914;2023-06-19T06:31:07;7.23;;;4.50;;
16031;SDS011;8120;48.308;8.914;2023-06-19T06:33:36;5.97;;;3.77;;
16031;SDS011;8120;48.308;8.914;2023-06-19T06:36:04;5.77;;;4.23;;
16031;SDS011;8120;48.308;8.914;2023-06-19T06:38:34;7.57;;;4.10;;
16031;SDS011;8120;48.308;8.914;2023-06-19T06:41:02;5.87;;;4.03;;
16031;SDS011;8120;48.308;8.914;2023-06-19T06:43:30;6.40;;;3.77;;
16031;SDS011;8120;48.308;8.914;2023-06-19T06:45:57;6.53;;;3.70;;
16031;SDS011;8120;48.308;8.914;2023-06-19T06:48:25;7.53;;;4.30;;
16031;SDS011;8120;48.308;8.914;2023-06-19T06:50:55;4.50;;;3.60;;
16031;SDS011;8120;48.308;8.914;2023-06-19T06:53:27;8.13;;;4.10;;
16031;SDS011;8120;48.308;8.914;2023-06-19T06:55:57;5.37;;;4.07;;
16031;SDS011;8120;48.308;8.914;2023-06-19T06:58:26;6.90;;;4.13;;
16031;SDS011;8120;48.308;8.914;2023-06-19T07:00:54;4.87;;;3.97;;
16031;SDS011;8120;48.308;8.914;2023-06-19T07:03:23;6.60;;;4.20;;
16031;SDS011;8120;48.308;8.914;2023-06-19T07:05:51;5.15;;;3.92;;
16031;SDS011;8120;48.308;8.914;2023-06-19T07:08:20;4.85;;;3.67;;
16031;SDS011;8120;48.308;8.914;2023-06-19T07:10:48;7.18;;;4.10;;
16031;SDS011;8120;48.308;8.914;2023-06-19T07:13:15;6.57;;;4.30;;
16031;SDS011;8120;48.308;8.914;2023-06-19T07:15:43;5.43;;;3.63;;
16031;SDS011;8120;48.308;8.914;2023-06-19T07:18:11;5.88;;;3.55;;
16031;SDS011;8120;48.308;8.914;2023-06-19T07:20:39;5.03;;;4.20;;
16031;SDS011;8120;48.308;8.914;2023-06-19T07:23:07;5.60;;;3.97;;
16031;SDS011;8120;48.308;8.914;2023-06-19T07:25:37;6.80;;;4.63;;
16031;SDS011;8120;48.308;8.914;2023-06-19T07:28:05;5.22;;;3.92;;
16031;SDS011;8120;48.308;8.914;2023-06-19T07:30:32;7.22;;;3.85;;
16031;SDS011;8120;48.308;8.914;2023-06-19T07:33:00;5.43;;;4.10;;
16031;SDS011;8120;48.308;8.914;2023-06-19T07:35:28;4.82;;;3.55;;
16031;SDS011;8120;48.308;8.914;2023-06-19T07:37:56;6.32;;;4.25;;
16031;SDS011;8120;48.308;8.914;2023-06-19T07:40:24;5.35;;;3.75;;
16031;SDS011;8120;48.308;8.914;2023-06-19T07:42:54;3.38;;;2.72;;
16031;SDS011;8120;48.308;8.914;2023-06-19T07:45:21;4.68;;;3.20;;
16031;SDS011;8120;48.308;8.914;2023-06-19T07:47:53;3.72;;;3.05;;
16031;SDS011;8120;48.308;8.914;2023-06-19T07:50:22;3.35;;;2.85;;
16031;SDS011;8120;48.308;8.914;2023-06-19T07:52:53;3.65;;;3.00;;
16031;SDS011;8120;48.308;8.914;2023-06-19T07:55:21;3.45;;;2.80;;
16031;SDS011;8120;48.308;8.914;2023-06-19T07:57:49;4.45;;;3.03;;
16031;SDS011;8120;48.308;8.914;2023-06-19T08:00:19;3.95;;;2.83;;
16031;SDS011;8120;48.308;8.914;2023-06-19T08:02:48;4.78;;;3.08;;
16031;SDS011;8120;48.308;8.914;2023-06-19T08:05:16;4.38;;;3.22;;
16031;SDS011;8120;48.308;8.914;2023-06-19T08:07:44;3.47;;;3.15;;
16031;SDS011;8120;48.308;8.914;2023-06-19T08:10:12;4.10;;;3.25;;
16031;SDS011;8120;48.308;8.914;2023-06-19T08:12:40;3.15;;;2.60;;
16031;SDS011;8120;48.308;8.914;2023-06-19T08:15:09;4.40;;;3.13;;
16031;SDS011;8120;48.308;8.914;2023-06-19T08:17:39;3.75;;;2.80;;
16031;SDS011;8120;48.308;8.914;2023-06-19T08:20:07;3.75;;;2.63;;
16031;SDS011;8120;48.308;8.914;2023-06-19T08:22:36;3.40;;;2.65;;
16031;SDS011;8120;48.308;8.914;2023-06-19T08:25:04;3.70;;;2.75;;
16031;SDS011;8120;48.308;8.914;2023-06-19T08:27:32;2.90;;;2.50;;
16031;SDS011;8120;48.308;8.914;2023-06-19T08:30:00;3.15;;;2.70;;
16031;SDS011;8120;48.308;8.914;2023-06-19T08:32:29;4.10;;;2.72;;
16031;SDS011;8120;48.308;8.914;2023-06-19T08:34:58;4.85;;;2.92;;
16031;SDS011;8120;48.308;8.914;2023-06-19T08:37:26;3.97;;;2.90;;
16031;SDS011;8120;48.308;8.914;2023-06-19T08:39:54;2.92;;;2.63;;
16031;SDS011;8120;48.308;8.914;2023-06-19T08:42:22;3.53;;;3.03;;
16031;SDS011;8120;48.308;8.914;2023-06-19T08:44:50;5.03;;;3.58;;
16031;SDS011;8120;48.308;8.914;2023-06-19T08:47:18;3.58;;;3.13;;
16031;SDS011;8120;48.308;8.914;2023-06-19T08:49:46;3.67;;;3.10;;
16031;SDS011;8120;48.308;8.914;2023-06-19T08:52:15;4.90;;;3.03;;
16031;SDS011;8120;48.308;8.914;2023-06-19T08:54:43;5.47;;;3.33;;
16031;SDS011;8120;48.308;8.914;2023-06-19T08:57:11;6.07;;;3.10;;
16031;SDS011;8120;48.308;8.914;2023-06-19T08:59:39;4.28;;;3.00;;
16031;SDS011;8120;48.308;8.914;2023-06-19T09:02:08;4.95;;;3.50;;
16031;SDS011;8120;48.308;8.914;2023-06-19T09:04:36;3.85;;;3.30;;
16031;SDS011;8120;48.308;8.914;2023-06-19T09:07:04;4.15;;;3.22;;
16031;SDS011;8120;48.308;8.914;2023-06-19T09:09:36;3.90;;;3.13;;
16031;SDS011;8120;48.308;8.914;2023-06-19T09:12:05;4.10;;;3.42;;
16031;SDS011;8120;48.308;8.914;2023-06-19T09:14:36;4.55;;;3.47;;
16031;SDS011;8120;48.308;8.914;2023-06-19T09:17:05;3.65;;;3.22;;
16031;SDS011;8120;48.308;8.914;2023-06-19T09:19:37;4.93;;;3.65;;
16031;SDS011;8120;48.308;8.914;2023-06-19T09:22:07;4.07;;;3.58;;
16031;SDS011;8120;48.308;8.914;2023-06-19T09:24:37;4.97;;;3.47;;
16031;SDS011;8120;48.308;8.914;2023-06-19T09:27:07;4.97;;;4.30;;
16031;SDS011;8120;48.308;8.914;2023-06-19T09:29:37;3.70;;;3.15;;
16031;SDS011;8120;48.308;8.914;2023-06-19T09:32:16;3.88;;;3.40;;
16031;SDS011;8120;48.308;8.914;2023-06-19T09:34:45;4.93;;;3.60;;
16031;SDS011;8120;48.308;8.914;2023-06-19T09:37:13;5.22;;;4.35;;
16031;SDS011;8120;48.308;8.914;2023-06-19T09:39:42;5.35;;;4.38;;
16031;SDS011;8120;48.308;8.914;2023-06-19T09:42:12;5.20;;;4.10;;
16031;SDS011;8120;48.308;8.914;2023-06-19T09:44:42;5.70;;;4.03;;
16031;SDS011;8120;48.308;8.914;2023-06-19T09:47:14;4.85;;;3.80;;
16031;SDS011;8120;48.308;8.914;2023-06-19T09:49:47;5.25;;;4.03;;
16031;SDS011;8120;48.308;8.914;2023-06-19T09:52:17;5.50;;;3.92;;
16031;SDS011;8120;48.308;8.914;2023-06-19T09:54:50;5.90;;;4.20;;
16031;SDS011;8120;48.308;8.914;2023-06-19T09:57:19;5.05;;;4.03;;
16031;SDS011;8120;48.308;8.914;2023-06-19T09:59:48;4.78;;;3.88;;
16031;SDS011;8120;48.308;8.914;2023-06-19T10:02:19;6.05;;;4.53;;
16031;SDS011;8120;48.308;8.914;2023-06-19T10:04:49;4.95;;;4.10;;
16031;SDS011;8120;48.308;8.914;2023-06-19T10:07:19;5.38;;;4.30;;
16031;SDS011;8120;48.308;8.914;2023-06-19T10:09:56;4.78;;;4.22;;
16031;SDS011;8120;48.308;8.914;2023-06-19T10:12:35;5.97;;;4.43;;
16031;SDS011;8120;48.308;8.914;2023-06-19T10:15:10;13.38;;;4.75;;
16031;SDS011;8120;48.308;8.914;2023-06-19T10:17:44;4.95;;;4.10;;
16031;SDS011;8120;48.308;8.914;2023-06-19T10:20:20;5.63;;;4.22;;
16031;SDS011;8120;48.308;8.914;2023-06-19T10:22:51;5.32;;;4.03;;
16031;SDS011;8120;48.308;8.914;2023-06-19T10:25:22;4.78;;;3.92;;
16031;SDS011;8120;48.308;8.914;2023-06-19T10:27:50;5.72;;;4.70;;
16031;SDS011;8120;48.308;8.914;2023-06-19T10:30:19;4.45;;;3.88;;
16031;SDS011;8120;48.308;8.914;2023-06-19T10:32:48;5.25;;;4.15;;
16031;SDS011;8120;48.308;8.914;2023-06-19T10:35:16;4.13;;;3.72;;
16031;SDS011;8120;48.308;8.914;2023-06-19T10:37:47;5.22;;;4.03;;
16031;SDS011;8120;48.308;8.914;2023-06-19T10:40:15;5.53;;;4.28;;
16031;SDS011;8120;48.308;8.914;2023-06-19T10:42:45;6.03;;;4.00;;
16031;SDS011;8120;48.308;8.914;2023-06-19T10:45:13;6.47;;;4.60;;
16031;SDS011;8120;48.308;8.914;2023-06-19T10:47:43;4.82;;;4.18;;
16031;SDS011;8120;48.308;8.914;2023-06-19T10:50:12;6.20;;;4.45;;
16031;SDS011;8120;48.308;8.914;2023-06-19T10:52:40;5.97;;;4.53;;
16031;SDS011;8120;48.308;8.914;2023-06-19T10:55:10;6.40;;;4.60;;
16031;SDS011;8120;48.308;8.914;2023-06-19T10:57:39;4.68;;;4.18;;
16031;SDS011;8120;48.308;8.914;2023-06-19T11:00:21;6.22;;;4.50;;
16031;SDS011;8120;48.308;8.914;2023-06-19T11:02:51;4.88;;;4.00;;
16031;SDS011;8120;48.308;8.914;2023-06-19T11:05:19;8.25;;;4.53;;
16031;SDS011;8120;48.308;8.914;2023-06-19T11:07:52;7.00;;;5.07;;
16031;SDS011;8120;48.308;8.914;2023-06-19T11:10:21;5.38;;;4.18;;
16031;SDS011;8120;48.308;8.914;2023-06-19T11:12:53;5.20;;;4.20;;
16031;SDS011;8120;48.308;8.914;2023-06-19T11:15:29;6.25;;;4.70;;
16031;SDS011;8120;48.308;8.914;2023-06-19T11:17:57;5.68;;;4.43;;
16031;SDS011;8120;48.308;8.914;2023-06-19T11:20:25;5.18;;;4.30;;
16031;SDS011;8120;48.308;8.914;2023-06-19T11:22:54;5.63;;;4.35;;
16031;SDS011;8120;48.308;8.914;2023-06-19T11:25:34;6.35;;;4.35;;
16031;SDS011;8120;48.308;8.914;2023-06-19T11:28:02;4.85;;;3.90;;
16031;SDS011;8120;48.308;8.914;2023-06-19T11:30:33;5.18;;;4.40;;
16031;SDS011;8120;48.308;8.914;2023-06-19T11:33:01;5.10;;;4.30;;
16031;SDS011;8120;48.308;8.914;2023-06-19T11:35:32;5.85;;;4.35;;
16031;SDS011;8120;48.308;8.914;2023-06-19T11:38:02;5.60;;;4.43;;
16031;SDS011;8120;48.308;8.914;2023-06-19T11:40:38;4.70;;;4.15;;
16031;SDS011;8120;48.308;8.914;2023-06-19T11:43:06;5.32;;;4.35;;
16031;SDS011;8120;48.308;8.914;2023-06-19T11:45:45;5.82;;;4.50;;
16031;SDS011;8120;48.308;8.914;2023-06-19T11:48:21;5.18;;;4.68;;
16031;SDS011;8120;48.308;8.914;2023-06-19T11:50:50;5.72;;;4.90;;
16031;SDS011;8120;48.308;8.914;2023-06-19T11:53:19;6.15;;;4.22;;
16031;SDS011;8120;48.308;8.914;2023-06-19T11:55:47;5.95;;;4.63;;
16031;SDS011;8120;48.308;8.914;2023-06-19T11:58:15;5.82;;;4.68;;
16031;SDS011;8120;48.308;8.914;2023-06-19T12:00:47;5.50;;;3.92;;
16031;SDS011;8120;48.308;8.914;2023-06-19T12:03:15;6.20;;;4.63;;
16031;SDS011;8120;48.308;8.914;2023-06-19T12:05:43;4.93;;;4.13;;
16031;SDS011;8120;48.308;8.914;2023-06-19T12:08:11;4.93;;;4.32;;
16031;SDS011;8120;48.308;8.914;2023-06-19T12:10:39;5.47;;;4.63;;
16031;SDS011;8120;48.308;8.914;2023-06-19T12:13:06;5.45;;;4.43;;
16031;SDS011;8120;48.308;8.914;2023-06-19T12:15:35;6.50;;;4.70;;
16031;SDS011;8120;48.308;8.914;2023-06-19T12:18:04;5.15;;;4.35;;
16031;SDS011;8120;48.308;8.914;2023-06-19T12:20:34;7.57;;;4.97;;
16031;SDS011;8120;48.308;8.914;2023-06-19T12:23:02;5.55;;;4.68;;
16031;SDS011;8120;48.308;8.914;2023-06-19T12:25:30;6.18;;;5.03;;
16031;SDS011;8120;48.308;8.914;2023-06-19T12:27:58;7.80;;;5.00;;
16031;SDS011;8120;48.308;8.914;2023-06-19T12:30:26;5.20;;;4.57;;
16031;SDS011;8120;48.308;8.914;2023-06-19T12:32:53;5.43;;;4.57;;
16031;SDS011;8120;48.308;8.914;2023-06-19T12:35:23;5.57;;;4.43;;
16031;SDS011;8120;48.308;8.914;2023-06-19T12:37:52;5.28;;;4.53;;
16031;SDS011;8120;48.308;8.914;2023-06-19T12:40:21;5.72;;;4.57;;
16031;SDS011;8120;48.308;8.914;2023-06-19T12:42:49;5.50;;;4.75;;
16031;SDS011;8120;48.308;8.914;2023-06-19T12:45:17;6.28;;;4.32;;
16031;SDS011;8120;48.308;8.914;2023-06-19T12:47:45;5.20;;;4.70;;
16031;SDS011;8120;48.308;8.914;2023-06-19T12:50:13;5.72;;;4.97;;
16031;SDS011;8120;48.308;8.914;2023-06-19T12:52:42;6.03;;;4.68;;
16031;SDS011;8120;48.308;8.914;2023-06-19T12:55:10;7.03;;;4.88;;
16031;SDS011;8120;48.308;8.914;2023-06-19T12:57:38;5.22;;;4.65;;
16031;SDS011;8120;48.308;8.914;2023-06-19T13:00:07;5.78;;;4.93;;
16031;SDS011;8120;48.308;8.914;2023-06-19T13:02:38;5.43;;;4.38;;
16031;SDS011;8120;48.308;8.914;2023-06-19T13:05:06;6.68;;;5.28;;
16031;SDS011;8120;48.308;8.914;2023-06-19T13:07:35;6.20;;;5.28;;
16031;SDS011;8120;48.308;8.914;2023-06-19T13:10:04;5.55;;;4.38;;
16031;SDS011;8120;48.308;8.914;2023-06-19T13:12:33;6.07;;;4.75;;
16031;SDS011;8120;48.308;8.914;2023-06-19T13:15:01;8.25;;;5.18;;
16031;SDS011;8120;48.308;8.914;2023-06-19T13:17:29;5.78;;;4.78;;
16031;SDS011;8120;48.308;8.914;2023-06-19T13:19:57;7.53;;;4.18;;
16031;SDS011;8120;48.308;8.914;2023-06-19T13:22:25;5.95;;;4.65;;
16031;SDS011;8120;48.308;8.914;2023-06-19T13:24:53;5.30;;;4.80;;
16031;SDS011;8120;48.308;8.914;2023-06-19T13:27:22;8.27;;;4.82;;
16031;SDS011;8120;48.308;8.914;2023-06-19T13:29:50;5.35;;;4.30;;
16031;SDS011;8120;48.308;8.914;2023-06-19T13:32:21;5.38;;;4.72;;
16031;SDS011;8120;48.308;8.914;2023-06-19T13:34:49;6.40;;;4.85;;
16031;SDS011;8120;48.308;8.914;2023-06-19T13:37:17;5.47;;;4.63;;
16031;SDS011;8120;48.308;8.914;2023-06-19T13:39:45;6.82;;;4.50;;
16031;SDS011;8120;48.308;8.914;2023-06-19T13:42:13;5.15;;;4.53;;
16031;SDS011;8120;48.308;8.914;2023-06-19T13:44:42;8.07;;;5.30;;
16031;SDS011;8120;48.308;8.914;2023-06-19T13:47:10;5.03;;;4.40;;
16031;SDS011;8120;48.308;8.914;2023-06-19T13:49:38;5.88;;;4.90;;
16031;SDS011;8120;48.308;8.914;2023-06-19T13:52:07;6.65;;;4.88;;
16031;SDS011;8120;48.308;8.914;2023-06-19T13:54:35;6.00;;;5.40;;
16031;SDS011;8120;48.308;8.914;2023-06-19T13:57:03;5.45;;;4.95;;
16031;SDS011;8120;48.308;8.914;2023-06-19T13:59:32;6.53;;;4.85;;
16031;SDS011;8120;48.308;8.914;2023-06-19T14:02:01;5.80;;;5.07;;
16031;SDS011;8120;48.308;8.914;2023-06-19T14:04:29;6.20;;;5.13;;
16031;SDS011;8120;48.308;8.914;2023-06-19T14:06:57;5.65;;;5.10;;
16031;SDS011;8120;48.308;8.914;2023-06-19T14:09:26;6.85;;;5.15;;
16031;SDS011;8120;48.308;8.914;2023-06-19T14:11:54;5.65;;;4.60;;
16031;SDS011;8120;48.308;8.914;2023-06-19T14:14:22;6.38;;;4.70;;
16031;SDS011;8120;48.308;8.914;2023-06-19T14:16:50;7.68;;;4.95;;
16031;SDS011;8120;48.308;8.914;2023-06-19T14:19:19;6.45;;;4.93;;
16031;SDS011;8120;48.308;8.914;2023-06-19T14:21:47;5.68;;;4.78;;
16031;SDS011;8120;48.308;8.914;2023-06-19T14:24:15;6.05;;;4.57;;
16031;SDS011;8120;48.308;8.914;2023-06-19T14:26:43;4.97;;;4.32;;
16031;SDS011;8120;48.308;8.914;2023-06-19T14:29:11;6.78;;;4.72;;
16031;SDS011;8120;48.308;8.914;2023-06-19T14:31:41;5.85;;;5.15;;
16031;SDS011;8120;48.308;8.914;2023-06-19T14:34:09;5.25;;;4.57;;
16031;SDS011;8120;48.308;8.914;2023-06-19T14:36:38;6.03;;;4.70;;
16031;SDS011;8120;48.308;8.914;2023-06-19T14:39:06;9.05;;;5.10;;
16031;SDS011;8120;48.308;8.914;2023-06-19T14:41:34;5.55;;;4.80;;
16031;SDS011;8120;48.308;8.914;2023-06-19T14:44:02;6.07;;;4.60;;
16031;SDS011;8120;48.308;8.914;2023-06-19T14:46:30;6.53;;;4.82;;
16031;SDS011;8120;48.308;8.914;2023-06-19T14:49:05;5.70;;;4.68;;
16031;SDS011;8120;48.308;8.914;2023-06-19T14:51:33;5.60;;;4.55;;
16031;SDS011;8120;48.308;8.914;2023-06-19T14:54:02;5.82;;;4.90;;
16031;SDS011;8120;48.308;8.914;2023-06-19T14:56:30;7.82;;;5.22;;
16031;SDS011;8120;48.308;8.914;2023-06-19T14:58:58;6.55;;;4.68;;
16031;SDS011;8120;48.308;8.914;2023-06-19T15:01:26;6.50;;;5.05;;
16031;SDS011;8120;48.308;8.914;2023-06-19T15:03:54;9.70;;;5.47;;
16031;SDS011;8120;48.308;8.914;2023-06-19T15:06:22;6.18;;;4.78;;
16031;SDS011;8120;48.308;8.914;2023-06-19T15:08:50;9.02;;;5.72;;
16031;SDS011;8120;48.308;8.914;2023-06-19T15:11:19;6.93;;;5.63;;